sensor_id;sensor_type;location;lat;lon;timestamp;pressure;altitude;pressure_sealevel;temperature;humidity
11099;BME280;12223;42.650;23.364;2023-02-01T00:02:12;94828.38;;;1.23;100.00
11099;BME280;12223;42.650;23.364;2023-02-01T00:04:39;94822.34;;;1.06;100.00
11099;BME280;12223;42.650;23.364;2023-02-01T00:07:06;94832.78;;;1.39;100.00
11099;BME280;12223;42.650;23.364;2023-02-01T00:09:33;94822.53;;;1.37;100.00
11099;BME280;12223;42.650;23.364;2023-02-01T00:12:00;94823.66;;;1.10;100.00
11099;BME280;12223;42.650;23.364;2023-02-01T00:14:28;94829.84;;;1.17;100.00
11099;BME280;12223;42.650;23.364;2023-02-01T00:16:56;94819.47;;;1.50;100.00
11099;BME280;12223;42.650;23.364;2023-02-01T00:19:23;94818.63;;;1.33;100.00
11099;BME280;12223;42.650;23.364;2023-02-01T00:21:50;94826.41;;;1.09;100.00
11099;BME280;12223;42.650;23.364;2023-02-01T00:24:17;94827.22;;;1.09;100.00
11099;BME280;12223;42.650;23.364;2023-02-01T00:26:44;94816.19;;;1.07;100.00
11099;BME280;12223;42.650;23.364;2023-02-01T00:29:13;94820.59;;;1.31;100.00
11099;BME280;12223;42.650;23.364;2023-02-01T00:31:41;94812.28;;;1.36;100.00
11099;BME280;12223;42.650;23.364;2023-02-01T00:34:12;94807.91;;;1.36;100.00
11099;BME280;12223;42.650;23.364;2023-02-01T00:36:39;94813.59;;;1.48;100.00
11099;BME280;12223;42.650;23.364;2023-02-01T00:39:06;94818.78;;;1.40;100.00
11099;BME280;12223;42.650;23.364;2023-02-01T00:41:33;94810.66;;;1.35;100.00
11099;BME280;12223;42.650;23.364;2023-02-01T00:44:00;94809.84;;;1.42;100.00
11099;BME280;12223;42.650;23.364;2023-02-01T00:46:27;94804.34;;;1.45;100.00
11099;BME280;12223;42.650;23.364;2023-02-01T00:48:54;94801.72;;;1.29;100.00
11099;BME280;12223;42.650;23.364;2023-02-01T00:51:24;94803.66;;;1.35;100.00
11099;BME280;12223;42.650;23.364;2023-02-01T00:53:55;94807.88;;;1.28;100.00
11099;BME280;12223;42.650;23.364;2023-02-01T00:56:22;94798.78;;;1.16;100.00
11099;BME280;12223;42.650;23.364;2023-02-01T00:58:49;94807.38;;;1.08;100.00
11099;BME280;12223;42.650;23.364;2023-02-01T01:01:17;94803.34;;;1.06;100.00
11099;BME280;12223;42.650;23.364;2023-02-01T01:03:46;94802.97;;;0.85;100.00
11099;BME280;12223;42.650;23.364;2023-02-01T01:06:15;94795.31;;;0.83;100.00
11099;BME280;12223;42.650;23.364;2023-02-01T01:08:44;94798.28;;;0.88;100.00
11099;BME280;12223;42.650;23.364;2023-02-01T01:11:13;94805.09;;;0.97;100.00
11099;BME280;12223;42.650;23.364;2023-02-01T01:13:41;94808.53;;;1.06;100.00
11099;BME280;12223;42.650;23.364;2023-02-01T01:16:09;94801.88;;;1.11;100.00
11099;BME280;12223;42.650;23.364;2023-02-01T01:18:36;94809.00;;;1.09;100.00
11099;BME280;12223;42.650;23.364;2023-02-01T01:21:04;94813.41;;;1.17;100.00
11099;BME280;12223;42.650;23.364;2023-02-01T01:23:32;94814.38;;;1.16;100.00
11099;BME280;12223;42.650;23.364;2023-02-01T01:26:00;94795.38;;;1.15;100.00
11099;BME280;12223;42.650;23.364;2023-02-01T01:28:27;94803.19;;;1.07;100.00
11099;BME280;12223;42.650;23.364;2023-02-01T01:30:54;94799.91;;;1.05;100.00
11099;BME280;12223;42.650;23.364;2023-02-01T01:33:20;94794.41;;;1.25;100.00
11099;BME280;12223;42.650;23.364;2023-02-01T01:35:47;94808.88;;;1.27;100.00
11099;BME280;12223;42.650;23.364;2023-02-01T01:38:14;94805.63;;;1.33;100.00
11099;BME280;12223;42.650;23.364;2023-02-01T01:40:44;94814.59;;;1.39;100.00
11099;BME280;12223;42.650;23.364;2023-02-01T01:43:18;94817.81;;;1.41;100.00
11099;BME280;12223;42.650;23.364;2023-02-01T01:45:48;94820.25;;;1.42;99.87
11099;BME280;12223;42.650;23.364;2023-02-01T01:48:18;94814.75;;;1.37;97.60
11099;BME280;12223;42.650;23.364;2023-02-01T01:50:50;94823.81;;;1.33;96.44
11099;BME280;12223;42.650;23.364;2023-02-01T01:53:20;94816.50;;;1.12;96.79
11099;BME280;12223;42.650;23.364;2023-02-01T01:55:50;94824.63;;;1.17;97.43
11099;BME280;12223;42.650;23.364;2023-02-01T01:58:23;94806.56;;;1.08;97.43
11099;BME280;12223;42.650;23.364;2023-02-01T02:00:52;94814.22;;;1.17;97.50
11099;BME280;12223;42.650;23.364;2023-02-01T02:03:21;94819.56;;;1.00;97.76
11099;BME280;12223;42.650;23.364;2023-02-01T02:05:52;94815.47;;;0.81;100.00
11099;BME280;12223;42.650;23.364;2023-02-01T02:08:21;94816.25;;;0.73;100.00
11099;BME280;12223;42.650;23.364;2023-02-01T02:10:50;94810.56;;;0.78;100.00
11099;BME280;12223;42.650;23.364;2023-02-01T02:13:30;94818.97;;;0.64;100.00
11099;BME280;12223;42.650;23.364;2023-02-01T02:16:12;94813.53;;;0.41;100.00
11099;BME280;12223;42.650;23.364;2023-02-01T02:18:47;94805.94;;;0.48;100.00
11099;BME280;12223;42.650;23.364;2023-02-01T02:21:26;94804.75;;;0.34;100.00
11099;BME280;12223;42.650;23.364;2023-02-01T02:24:26;94793.88;;;0.30;100.00
11099;BME280;12223;42.650;23.364;2023-02-01T02:27:06;94789.34;;;0.40;100.00
11099;BME280;12223;42.650;23.364;2023-02-01T02:35:41;94800.13;;;0.12;100.00
11099;BME280;12223;42.650;23.364;2023-02-01T02:38:13;94803.34;;;0.06;100.00
11099;BME280;12223;42.650;23.364;2023-02-01T02:40:48;94807.09;;;0.11;100.00
11099;BME280;12223;42.650;23.364;2023-02-01T02:43:21;94805.59;;;0.09;100.00
11099;BME280;12223;42.650;23.364;2023-02-01T02:46:13;94814.13;;;0.27;100.00
11099;BME280;12223;42.650;23.364;2023-02-01T02:49:00;94801.66;;;0.38;100.00
11099;BME280;12223;42.650;23.364;2023-02-01T02:51:32;94800.84;;;0.38;100.00
11099;BME280;12223;42.650;23.364;2023-02-01T02:54:21;94795.22;;;0.43;100.00
11099;BME280;12223;42.650;23.364;2023-02-01T02:57:08;94798.25;;;0.38;100.00
11099;BME280;12223;42.650;23.364;2023-02-01T02:59:55;94794.59;;;0.49;100.00
11099;BME280;12223;42.650;23.364;2023-02-01T03:02:42;94794.25;;;0.52;100.00
11099;BME280;12223;42.650;23.364;2023-02-01T03:05:32;94796.22;;;0.58;100.00
11099;BME280;12223;42.650;23.364;2023-02-01T03:08:08;94806.75;;;0.48;99.92
11099;BME280;12223;42.650;23.364;2023-02-01T03:10:42;94806.34;;;0.69;98.76
11099;BME280;12223;42.650;23.364;2023-02-01T03:13:13;94808.13;;;0.68;96.23
11099;BME280;12223;42.650;23.364;2023-02-01T03:15:45;94817.66;;;0.60;94.96
11099;BME280;12223;42.650;23.364;2023-02-01T03:18:20;94819.34;;;0.77;93.71
11099;BME280;12223;42.650;23.364;2023-02-01T03:20:51;94831.56;;;0.85;93.15
11099;BME280;12223;42.650;23.364;2023-02-01T03:23:23;94829.59;;;0.78;92.10
11099;BME280;12223;42.650;23.364;2023-02-01T03:25:54;94828.78;;;0.78;92.50
11099;BME280;12223;42.650;23.364;2023-02-01T03:28:23;94830.59;;;0.86;92.39
11099;BME280;12223;42.650;23.364;2023-02-01T03:30:52;94830.09;;;0.90;91.40
11099;BME280;12223;42.650;23.364;2023-02-01T03:33:21;94831.41;;;0.86;92.05
11099;BME280;12223;42.650;23.364;2023-02-01T03:35:55;94823.75;;;0.85;92.36
11099;BME280;12223;42.650;23.364;2023-02-01T03:38:28;94836.91;;;0.83;92.78
11099;BME280;12223;42.650;23.364;2023-02-01T03:41:02;94835.31;;;0.90;92.44
11099;BME280;12223;42.650;23.364;2023-02-01T03:43:34;94836.28;;;0.89;92.97
11099;BME280;12223;42.650;23.364;2023-02-01T03:46:09;94830.44;;;0.87;93.29
11099;BME280;12223;42.650;23.364;2023-02-01T03:48:39;94829.78;;;0.93;93.59
11099;BME280;12223;42.650;23.364;2023-02-01T03:51:08;94822.16;;;0.92;94.18
11099;BME280;12223;42.650;23.364;2023-02-01T03:53:38;94826.56;;;0.99;94.21
11099;BME280;12223;42.650;23.364;2023-02-01T03:56:16;94839.06;;;0.88;94.36
11099;BME280;12223;42.650;23.364;2023-02-01T03:58:44;94832.06;;;0.88;93.71
11099;BME280;12223;42.650;23.364;2023-02-01T04:01:24;94825.69;;;0.82;93.22
11099;BME280;12223;42.650;23.364;2023-02-01T04:03:51;94826.84;;;0.80;93.73
11099;BME280;12223;42.650;23.364;2023-02-01T04:06:18;94823.63;;;0.94;94.20
11099;BME280;12223;42.650;23.364;2023-02-01T04:08:46;94824.94;;;0.98;93.74
11099;BME280;12223;42.650;23.364;2023-02-01T04:11:13;94828.34;;;0.99;93.72
11099;BME280;12223;42.650;23.364;2023-02-01T04:13:40;94833.72;;;1.05;93.13
11099;BME280;12223;42.650;23.364;2023-02-01T04:16:06;94827.56;;;1.06;93.63
11099;BME280;12223;42.650;23.364;2023-02-01T04:18:33;94829.81;;;1.09;93.47
11099;BME280;12223;42.650;23.364;2023-02-01T04:21:00;94811.59;;;0.93;94.28
11099;BME280;12223;42.650;23.364;2023-02-01T04:23:27;94823.34;;;1.13;95.02
11099;BME280;12223;42.650;23.364;2023-02-01T04:25:58;94826.91;;;1.12;94.52
11099;BME280;12223;42.650;23.364;2023-02-01T04:28:25;94844.63;;;1.17;96.27
11099;BME280;12223;42.650;23.364;2023-02-01T04:30:52;94828.38;;;1.07;97.28
11099;BME280;12223;42.650;23.364;2023-02-01T04:33:19;94833.72;;;1.21;97.72
11099;BME280;12223;42.650;23.364;2023-02-01T04:35:46;94837.28;;;1.04;98.80
11099;BME280;12223;42.650;23.364;2023-02-01T04:38:13;94834.03;;;1.02;99.95
11099;BME280;12223;42.650;23.364;2023-02-01T04:40:40;94842.03;;;1.17;100.00
11099;BME280;12223;42.650;23.364;2023-02-01T04:43:08;94828.22;;;1.16;100.00
11099;BME280;12223;42.650;23.364;2023-02-01T04:45:35;94830.50;;;1.19;100.00
11099;BME280;12223;42.650;23.364;2023-02-01T04:48:02;94836.03;;;1.25;100.00
11099;BME280;12223;42.650;23.364;2023-02-01T04:50:29;94835.06;;;1.26;100.00
11099;BME280;12223;42.650;23.364;2023-02-01T04:52:56;94834.69;;;1.20;100.00
11099;BME280;12223;42.650;23.364;2023-02-01T04:55:22;94835.69;;;1.28;100.00
11099;BME280;12223;42.650;23.364;2023-02-01T04:57:49;94828.22;;;1.16;100.00
11099;BME280;12223;42.650;23.364;2023-02-01T05:00:18;94845.28;;;1.27;100.00
11099;BME280;12223;42.650;23.364;2023-02-01T05:02:45;94852.94;;;1.29;100.00
11099;BME280;12223;42.650;23.364;2023-02-01T05:05:11;94857.66;;;1.25;100.00
11099;BME280;12223;42.650;23.364;2023-02-01T05:07:38;94857.00;;;1.31;100.00
11099;BME280;12223;42.650;23.364;2023-02-01T05:10:06;94855.38;;;1.30;100.00
11099;BME280;12223;42.650;23.364;2023-02-01T05:12:33;94868.88;;;1.26;100.00
11099;BME280;12223;42.650;23.364;2023-02-01T05:15:18;94866.25;;;1.34;100.00
11099;BME280;12223;42.650;23.364;2023-02-01T05:17:45;94864.97;;;1.30;100.00
11099;BME280;12223;42.650;23.364;2023-02-01T05:20:12;94871.28;;;1.27;100.00
11099;BME280;12223;42.650;23.364;2023-02-01T05:22:39;94870.34;;;1.36;100.00
11099;BME280;12223;42.650;23.364;2023-02-01T05:25:08;94870.53;;;1.43;100.00
11099;BME280;12223;42.650;23.364;2023-02-01T05:27:35;94863.38;;;1.45;100.00
11099;BME280;12223;42.650;23.364;2023-02-01T05:30:02;94861.75;;;1.44;100.00
11099;BME280;12223;42.650;23.364;2023-02-01T05:32:30;94861.91;;;1.50;100.00
11099;BME280;12223;42.650;23.364;2023-02-01T05:34:57;94868.72;;;1.43;100.00
11099;BME280;12223;42.650;23.364;2023-02-01T05:37:24;94872.28;;;1.34;100.00
11099;BME280;12223;42.650;23.364;2023-02-01T05:39:51;94862.38;;;1.38;100.00
11099;BME280;12223;42.650;23.364;2023-02-01T05:42:18;94868.41;;;1.54;100.00
11099;BME280;12223;42.650;23.364;2023-02-01T05:44:45;94860.78;;;1.45;100.00
11099;BME280;12223;42.650;23.364;2023-02-01T05:47:12;94873.63;;;1.54;100.00
11099;BME280;12223;42.650;23.364;2023-02-01T05:49:40;94869.56;;;1.60;100.00
11099;BME280;12223;42.650;23.364;2023-02-01T05:52:07;94860.28;;;1.57;100.00
11099;BME280;12223;42.650;23.364;2023-02-01T05:54:35;94868.25;;;1.56;100.00
11099;BME280;12223;42.650;23.364;2023-02-01T05:57:02;94865.97;;;1.53;100.00
11099;BME280;12223;42.650;23.364;2023-02-01T05:59:28;94862.91;;;1.57;100.00
11099;BME280;12223;42.650;23.364;2023-02-01T06:01:55;94866.44;;;1.65;100.00
11099;BME280;12223;42.650;23.364;2023-02-01T06:04:22;94864.66;;;1.73;100.00
11099;BME280;12223;42.650;23.364;2023-02-01T06:06:50;94875.91;;;1.82;100.00
11099;BME280;12223;42.650;23.364;2023-02-01T06:09:17;94875.56;;;1.85;100.00
11099;BME280;12223;42.650;23.364;2023-02-01T06:11:44;94888.44;;;1.86;100.00
11099;BME280;12223;42.650;23.364;2023-02-01T06:14:11;94880.63;;;1.86;100.00
11099;BME280;12223;42.650;23.364;2023-02-01T06:16:40;94872.81;;;1.86;100.00
11099;BME280;12223;42.650;23.364;2023-02-01T06:19:07;94875.72;;;1.91;98.91
11099;BME280;12223;42.650;23.364;2023-02-01T06:21:35;94879.63;;;1.71;99.91
11099;BME280;12223;42.650;23.364;2023-02-01T06:24:03;94876.88;;;1.89;99.94
11099;BME280;12223;42.650;23.364;2023-02-01T06:26:31;94874.91;;;1.91;99.56
11099;BME280;12223;42.650;23.364;2023-02-01T06:28:59;94885.84;;;1.94;98.18
11099;BME280;12223;42.650;23.364;2023-02-01T06:31:25;94874.44;;;1.95;97.33
11099;BME280;12223;42.650;23.364;2023-02-01T06:33:52;94887.91;;;2.15;97.18
11099;BME280;12223;42.650;23.364;2023-02-01T06:36:19;94875.53;;;2.09;93.95
11099;BME280;12223;42.650;23.364;2023-02-01T06:38:47;94881.56;;;2.10;94.03
11099;BME280;12223;42.650;23.364;2023-02-01T06:41:15;94873.28;;;2.14;93.50
11099;BME280;12223;42.650;23.364;2023-02-01T06:43:42;94890.03;;;2.20;92.98
11099;BME280;12223;42.650;23.364;2023-02-01T06:46:12;94883.03;;;2.20;92.15
11099;BME280;12223;42.650;23.364;2023-02-01T06:48:39;94892.13;;;2.24;90.28
11099;BME280;12223;42.650;23.364;2023-02-01T06:51:10;94894.44;;;2.27;89.65
11099;BME280;12223;42.650;23.364;2023-02-01T06:53:44;94905.63;;;2.36;89.17
11099;BME280;12223;42.650;23.364;2023-02-01T06:56:11;94904.00;;;2.35;88.98
11099;BME280;12223;42.650;23.364;2023-02-01T06:58:39;94896.66;;;2.47;88.03
11099;BME280;12223;42.650;23.364;2023-02-01T07:01:07;94909.22;;;2.43;85.79
11099;BME280;12223;42.650;23.364;2023-02-01T07:03:35;94900.72;;;2.41;86.32
11099;BME280;12223;42.650;23.364;2023-02-01T07:06:03;94890.97;;;2.35;86.17
11099;BME280;12223;42.650;23.364;2023-02-01T07:08:32;94916.19;;;2.51;86.18
11099;BME280;12223;42.650;23.364;2023-02-01T07:11:01;94921.91;;;2.46;86.15
11099;BME280;12223;42.650;23.364;2023-02-01T07:13:29;94908.75;;;2.31;85.72
11099;BME280;12223;42.650;23.364;2023-02-01T07:15:59;94922.22;;;2.51;85.21
11099;BME280;12223;42.650;23.364;2023-02-01T07:18:29;94926.63;;;2.51;84.77
11099;BME280;12223;42.650;23.364;2023-02-01T07:20:57;94917.03;;;2.35;84.89
11099;BME280;12223;42.650;23.364;2023-02-01T07:23:24;94940.28;;;2.61;83.24
11099;BME280;12223;42.650;23.364;2023-02-01T07:25:54;94938.50;;;2.53;82.94
11099;BME280;12223;42.650;23.364;2023-02-01T07:28:21;94946.00;;;2.56;83.39
11099;BME280;12223;42.650;23.364;2023-02-01T07:30:49;94941.75;;;2.63;82.77
11099;BME280;12223;42.650;23.364;2023-02-01T07:33:19;94944.81;;;2.75;82.25
11099;BME280;12223;42.650;23.364;2023-02-01T07:35:47;94948.25;;;2.75;81.67
11099;BME280;12223;42.650;23.364;2023-02-01T07:38:15;94945.94;;;2.80;81.21
11099;BME280;12223;42.650;23.364;2023-02-01T07:40:43;94948.19;;;2.92;81.37
11099;BME280;12223;42.650;23.364;2023-02-01T07:43:10;94947.03;;;2.94;80.10
11099;BME280;12223;42.650;23.364;2023-02-01T07:45:37;94953.22;;;2.93;78.74
11099;BME280;12223;42.650;23.364;2023-02-01T07:48:06;94941.84;;;2.86;77.51
11099;BME280;12223;42.650;23.364;2023-02-01T07:50:34;94968.38;;;2.98;77.46
11099;BME280;12223;42.650;23.364;2023-02-01T07:53:01;94945.25;;;2.95;77.53
11099;BME280;12223;42.650;23.364;2023-02-01T07:55:28;94961.34;;;3.06;76.71
11099;BME280;12223;42.650;23.364;2023-02-01T07:57:57;94962.47;;;3.04;76.61
11099;BME280;12223;42.650;23.364;2023-02-01T08:00:24;94964.25;;;3.11;75.73
11099;BME280;12223;42.650;23.364;2023-02-01T08:03:08;94977.16;;;3.05;75.48
11099;BME280;12223;42.650;23.364;2023-02-01T08:05:39;94968.19;;;3.07;75.00
11099;BME280;12223;42.650;23.364;2023-02-01T08:08:06;94974.69;;;3.11;74.81
11099;BME280;12223;42.650;23.364;2023-02-01T08:10:33;94983.63;;;3.17;74.92
11099;BME280;12223;42.650;23.364;2023-02-01T08:13:01;94979.69;;;3.29;74.44
11099;BME280;12223;42.650;23.364;2023-02-01T08:15:29;94980.16;;;3.33;74.22
11099;BME280;12223;42.650;23.364;2023-02-01T08:17:56;94985.84;;;3.36;73.14
11099;BME280;12223;42.650;23.364;2023-02-01T08:20:24;94967.56;;;3.36;73.54
11099;BME280;12223;42.650;23.364;2023-02-01T08:22:56;94961.47;;;3.52;72.36
11099;BME280;12223;42.650;23.364;2023-02-01T08:25:23;94958.13;;;3.66;71.33
11099;BME280;12223;42.650;23.364;2023-02-01T08:27:51;94964.19;;;3.67;70.48
11099;BME280;12223;42.650;23.364;2023-02-01T08:30:18;94960.22;;;3.71;68.89
11099;BME280;12223;42.650;23.364;2023-02-01T08:32:45;94971.19;;;3.66;68.37
11099;BME280;12223;42.650;23.364;2023-02-01T08:35:12;94973.94;;;3.73;68.71
11099;BME280;12223;42.650;23.364;2023-02-01T08:37:39;94977.41;;;3.88;68.41
11099;BME280;12223;42.650;23.364;2023-02-01T08:40:09;94975.56;;;3.96;67.31
11099;BME280;12223;42.650;23.364;2023-02-01T08:42:35;94974.34;;;4.07;66.10
11099;BME280;12223;42.650;23.364;2023-02-01T08:45:18;94971.72;;;4.07;66.29
11099;BME280;12223;42.650;23.364;2023-02-01T08:47:45;94963.31;;;4.20;65.63
11099;BME280;12223;42.650;23.364;2023-02-01T08:50:13;94963.00;;;4.37;65.38
11099;BME280;12223;42.650;23.364;2023-02-01T08:52:40;94959.75;;;4.35;64.13
11099;BME280;12223;42.650;23.364;2023-02-01T08:55:09;94969.22;;;4.74;63.42
11099;BME280;12223;42.650;23.364;2023-02-01T08:57:36;94960.38;;;5.04;63.38
11099;BME280;12223;42.650;23.364;2023-02-01T09:00:04;94961.53;;;5.31;61.93
11099;BME280;12223;42.650;23.364;2023-02-01T09:02:31;94964.03;;;5.54;59.85
11099;BME280;12223;42.650;23.364;2023-02-01T09:04:58;94963.22;;;6.04;59.37
11099;BME280;12223;42.650;23.364;2023-02-01T09:07:25;94964.16;;;6.18;57.43
11099;BME280;12223;42.650;23.364;2023-02-01T09:09:51;94970.22;;;6.18;56.48
11099;BME280;12223;42.650;23.364;2023-02-01T09:12:21;94972.25;;;6.01;55.67
11099;BME280;12223;42.650;23.364;2023-02-01T09:14:48;94953.75;;;5.88;55.94
11099;BME280;12223;42.650;23.364;2023-02-01T09:17:14;94980.25;;;5.93;55.92
11099;BME280;12223;42.650;23.364;2023-02-01T09:19:41;94961.97;;;5.85;55.90
11099;BME280;12223;42.650;23.364;2023-02-01T09:22:08;94982.88;;;5.64;56.74
11099;BME280;12223;42.650;23.364;2023-02-01T09:24:35;94977.25;;;5.31;56.72
11099;BME280;12223;42.650;23.364;2023-02-01T09:27:02;94964.63;;;5.20;57.50
11099;BME280;12223;42.650;23.364;2023-02-01T09:29:30;94979.16;;;5.37;57.90
11099;BME280;12223;42.650;23.364;2023-02-01T09:31:57;94960.75;;;5.31;58.50
11099;BME280;12223;42.650;23.364;2023-02-01T09:34:24;94967.81;;;5.66;58.28
11099;BME280;12223;42.650;23.364;2023-02-01T09:36:50;94963.78;;;5.99;57.57
11099;BME280;12223;42.650;23.364;2023-02-01T09:39:17;94958.31;;;6.01;55.97
11099;BME280;12223;42.650;23.364;2023-02-01T09:41:51;94965.16;;;6.38;55.37
11099;BME280;12223;42.650;23.364;2023-02-01T09:44:37;94953.47;;;5.98;56.28
11099;BME280;12223;42.650;23.364;2023-02-01T09:47:11;94957.81;;;6.33;54.86
11099;BME280;12223;42.650;23.364;2023-02-01T09:49:45;94954.09;;;6.70;53.85
11099;BME280;12223;42.650;23.364;2023-02-01T09:52:17;94958.34;;;6.99;54.09
11099;BME280;12223;42.650;23.364;2023-02-01T09:54:50;94944.44;;;7.05;52.35
11099;BME280;12223;42.650;23.364;2023-02-01T09:57:25;94937.22;;;7.14;51.58
11099;BME280;12223;42.650;23.364;2023-02-01T10:00:00;94936.47;;;7.26;50.85
11099;BME280;12223;42.650;23.364;2023-02-01T10:02:34;94924.88;;;7.55;50.16
11099;BME280;12223;42.650;23.364;2023-02-01T10:05:03;94914.91;;;7.38;49.58
11099;BME280;12223;42.650;23.364;2023-02-01T10:07:37;94915.38;;;7.54;48.95
11099;BME280;12223;42.650;23.364;2023-02-01T10:10:12;94922.31;;;7.75;49.51
11099;BME280;12223;42.650;23.364;2023-02-01T10:12:58;94911.59;;;7.70;48.29
11099;BME280;12223;42.650;23.364;2023-02-01T10:15:48;94906.34;;;7.22;48.36
11099;BME280;12223;42.650;23.364;2023-02-01T10:18:35;94900.41;;;7.55;49.23
11099;BME280;12223;42.650;23.364;2023-02-01T10:21:12;94904.50;;;7.64;48.25
11099;BME280;12223;42.650;23.364;2023-02-01T10:23:59;94902.31;;;7.81;48.83
11099;BME280;12223;42.650;23.364;2023-02-01T10:26:32;94888.75;;;7.90;48.07
11099;BME280;12223;42.650;23.364;2023-02-01T10:29:02;94887.97;;;7.90;47.54
11099;BME280;12223;42.650;23.364;2023-02-01T10:31:36;94887.94;;;7.70;48.78
11099;BME280;12223;42.650;23.364;2023-02-01T10:34:14;94893.19;;;7.16;47.31
11099;BME280;12223;42.650;23.364;2023-02-01T10:36:52;94890.19;;;7.25;49.37
11099;BME280;12223;42.650;23.364;2023-02-01T10:39:20;94873.47;;;7.33;48.65
11099;BME280;12223;42.650;23.364;2023-02-01T10:41:49;94881.81;;;7.09;48.52
11099;BME280;12223;42.650;23.364;2023-02-01T10:44:19;94883.94;;;7.26;49.44
11099;BME280;12223;42.650;23.364;2023-02-01T10:46:53;94888.16;;;7.27;47.80
11099;BME280;12223;42.650;23.364;2023-02-01T10:49:24;94874.84;;;7.29;48.25
11099;BME280;12223;42.650;23.364;2023-02-01T10:51:57;94879.78;;;7.52;48.15
11099;BME280;12223;42.650;23.364;2023-02-01T10:54:32;94890.63;;;7.36;47.57
11099;BME280;12223;42.650;23.364;2023-02-01T10:56:59;94873.66;;;7.32;47.48
11099;BME280;12223;42.650;23.364;2023-02-01T10:59:29;94879.22;;;7.15;48.50
11099;BME280;12223;42.650;23.364;2023-02-01T11:02:25;94889.41;;;6.91;48.35
11099;BME280;12223;42.650;23.364;2023-02-01T11:05:00;94890.81;;;6.86;48.83
11099;BME280;12223;42.650;23.364;2023-02-01T11:07:27;94883.13;;;6.85;49.08
11099;BME280;12223;42.650;23.364;2023-02-01T11:09:55;94853.72;;;6.62;49.24
11099;BME280;12223;42.650;23.364;2023-02-01T11:12:31;94884.75;;;6.86;48.83
11099;BME280;12223;42.650;23.364;2023-02-01T11:15:02;94871.47;;;6.94;48.94
11099;BME280;12223;42.650;23.364;2023-02-01T11:17:35;94874.38;;;7.12;48.84
11099;BME280;12223;42.650;23.364;2023-02-01T11:20:05;94900.53;;;6.93;48.77
11099;BME280;12223;42.650;23.364;2023-02-01T11:22:45;94881.16;;;6.59;48.84
11099;BME280;12223;42.650;23.364;2023-02-01T11:25:16;94874.66;;;6.55;49.34
11099;BME280;12223;42.650;23.364;2023-02-01T11:27:43;94867.97;;;5.97;49.80
11099;BME280;12223;42.650;23.364;2023-02-01T11:30:15;94844.81;;;6.00;51.12
11099;BME280;12223;42.650;23.364;2023-02-01T11:32:44;94850.88;;;6.29;50.96
11099;BME280;12223;42.650;23.364;2023-02-01T11:35:16;94858.41;;;6.38;50.53
11099;BME280;12223;42.650;23.364;2023-02-01T11:37:50;94857.53;;;6.59;50.31
11099;BME280;12223;42.650;23.364;2023-02-01T11:40:28;94860.78;;;6.61;49.38
11099;BME280;12223;42.650;23.364;2023-02-01T11:42:57;94862.69;;;6.46;49.46
11099;BME280;12223;42.650;23.364;2023-02-01T11:45:28;94854.34;;;6.70;50.20
11099;BME280;12223;42.650;23.364;2023-02-01T11:47:57;94848.59;;;6.81;49.98
11099;BME280;12223;42.650;23.364;2023-02-01T11:50:31;94835.09;;;6.91;49.20
11099;BME280;12223;42.650;23.364;2023-02-01T11:53:12;94826.19;;;6.85;48.60
11099;BME280;12223;42.650;23.364;2023-02-01T11:56:04;94830.22;;;6.81;48.93
11099;BME280;12223;42.650;23.364;2023-02-01T11:58:53;94826.38;;;6.84;49.01
11099;BME280;12223;42.650;23.364;2023-02-01T12:01:35;94815.19;;;6.62;48.88
11099;BME280;12223;42.650;23.364;2023-02-01T12:07:13;94823.28;;;6.67;49.57
11099;BME280;12223;42.650;23.364;2023-02-01T12:10:01;94810.38;;;6.72;49.10
11099;BME280;12223;42.650;23.364;2023-02-01T12:12:39;94810.47;;;6.92;49.60
11099;BME280;12223;42.650;23.364;2023-02-01T12:15:22;94813.09;;;6.92;49.42
11099;BME280;12223;42.650;23.364;2023-02-01T12:18:27;94810.47;;;6.92;48.95
11099;BME280;12223;42.650;23.364;2023-02-01T12:21:08;94791.59;;;6.69;49.50
11099;BME280;12223;42.650;23.364;2023-02-01T12:23:54;94804.78;;;6.82;49.36
11099;BME280;12223;42.650;23.364;2023-02-01T12:26:40;94814.09;;;6.91;49.33
11099;BME280;12223;42.650;23.364;2023-02-01T12:29:18;94793.06;;;6.84;49.05
11099;BME280;12223;42.650;23.364;2023-02-01T12:32:16;94792.91;;;6.93;49.47
11099;BME280;12223;42.650;23.364;2023-02-01T12:35:10;94817.94;;;6.89;49.36
11099;BME280;12223;42.650;23.364;2023-02-01T12:37:53;94809.28;;;6.95;49.82
11099;BME280;12223;42.650;23.364;2023-02-01T12:40:53;94807.97;;;6.77;49.83
11099;BME280;12223;42.650;23.364;2023-02-01T12:43:31;94807.03;;;6.92;50.39
11099;BME280;12223;42.650;23.364;2023-02-01T12:46:04;94797.75;;;7.02;49.29
11099;BME280;12223;42.650;23.364;2023-02-01T12:48:36;94821.06;;;7.18;48.40
11099;BME280;12223;42.650;23.364;2023-02-01T12:51:07;94803.03;;;7.09;48.15
11099;BME280;12223;42.650;23.364;2023-02-01T12:53:44;94810.09;;;7.08;48.43
11099;BME280;12223;42.650;23.364;2023-02-01T12:56:18;94823.44;;;7.00;49.71
11099;BME280;12223;42.650;23.364;2023-02-01T12:58:50;94792.19;;;7.25;49.23
11099;BME280;12223;42.650;23.364;2023-02-01T13:01:21;94821.97;;;7.52;47.95
11099;BME280;12223;42.650;23.364;2023-02-01T13:03:54;94818.34;;;7.59;46.83
11099;BME280;12223;42.650;23.364;2023-02-01T13:06:27;94808.63;;;7.60;47.36
11099;BME280;12223;42.650;23.364;2023-02-01T13:09:00;94807.72;;;7.13;47.00
11099;BME280;12223;42.650;23.364;2023-02-01T13:11:34;94782.69;;;7.17;47.32
11099;BME280;12223;42.650;23.364;2023-02-01T13:14:05;94819.91;;;7.34;46.92
11099;BME280;12223;42.650;23.364;2023-02-01T13:16:40;94819.84;;;7.14;47.80
11099;BME280;12223;42.650;23.364;2023-02-01T13:19:15;94812.16;;;7.13;47.07
11099;BME280;12223;42.650;23.364;2023-02-01T13:21:46;94810.34;;;7.13;46.55
11099;BME280;12223;42.650;23.364;2023-02-01T13:24:24;94809.75;;;7.18;46.23
11099;BME280;12223;42.650;23.364;2023-02-01T13:26:55;94810.31;;;7.07;45.42
11099;BME280;12223;42.650;23.364;2023-02-01T13:29:24;94810.13;;;7.15;45.79